Arklow Spray — C6VK8 — position and weather

sailwx.info

Track history (hours):
 
Tides and Currents Weather Stations Pressure Air Temp Water Temp Dewpoint Dewpoint Depression Visibility Wind Speed Wind Dir Waves Ship Positions

Arklow Spray

Last reported at 2015-Mar-01 05:24 UTC. Time now 2015-Mar-02 07:22 UTC.
Position N 51°20' W 003°20'.

Length 90 m; draft 4.8 m.

Type: Cargo ship. MMSI: 309914000.

Date/timePositionNaut miles runAvg speedWind from/ knotsBaromVisibWave heightAir tempDewpointWater temp
2015-Mar-01 05:24N 51°20' W 003°20'8 9.1
2015-Mar-01 04:33N 51°24' W 003°09'10 9.9
2015-Mar-01 03:33N 51°31' W 002°59'3 0.2
2015-Feb-28 12:27N 51°34' W 002°58'0 0.0
2015-Feb-28 10:33N 51°34' W 002°58'0 0.0
2015-Feb-28 02:03N 51°34' W 002°58'1 1.6
2015-Feb-28 01:31N 51°33' W 002°59'1010.1
2015-Feb-28 00:34N 51°24' W 003°06'10 9.1
2015-Feb-27 23:28N 51°21' W 003°21'174 6.7
2015-Feb-26 21:31N 54°11' W 004°20'  
2015-Feb-20 18:10N 50°37' E 000°34'812.7
2015-Feb-20 17:31N 50°42' E 000°44'3310.3
2015-Feb-20 14:18N 51°03' E 001°25'5 7.0
2015-Feb-20 13:33N 51°06' E 001°31'6 6.4
2015-Feb-20 12:33N 51°10' E 001°39'7 7.5
2015-Feb-20 11:33N 51°15' E 001°47'1110.6
2015-Feb-20 10:33N 51°24' E 001°58'9 9.3
2015-Feb-20 09:33N 51°22' E 002°12'1111.2
2015-Feb-20 08:33N 51°23' E 002°30'1110.9
2015-Feb-20 07:34N 51°22' E 002°47'1211.1
2015-Feb-20 06:30N 51°24' E 003°06'1212.4
2015-Feb-20 05:34N 51°25' E 003°25'1110.9
2015-Feb-20 04:33N 51°24' E 003°42'6 5.8
2015-Feb-20 03:33N 51°20' E 003°49'1 0.8
2015-Feb-20 02:34N 51°19' E 003°50'4 3.9
2015-Feb-20 01:34N 51°15' E 003°49'8 7.5
2015-Feb-20 00:33N 51°08' E 003°46'2 2.1
2015-Feb-19 23:32N 51°06' E 003°45'0 0.0
2015-Feb-19 22:32N 51°06' E 003°45'0 0.0
2015-Feb-19 21:32N 51°06' E 003°45'0 0.0
2015-Feb-19 20:32N 51°06' E 003°45'0 0.0
2015-Feb-19 19:32N 51°06' E 003°45'0 0.0
2015-Feb-19 18:31N 51°06' E 003°45'0 0.0
2015-Feb-19 17:32N 51°06' E 003°45'0 0.0
2015-Feb-19 16:28N 51°06' E 003°45'0 0.0
2015-Feb-19 15:28N 51°06' E 003°45'0 0.0
2015-Feb-19 14:28N 51°06' E 003°45'0 0.0
2015-Feb-19 13:31N 51°06' E 003°45'0 0.0
2015-Feb-19 12:28N 51°06' E 003°45'0 0.0
2015-Feb-19 11:28N 51°06' E 003°45'0 0.0
2015-Feb-19 10:28N 51°06' E 003°45'0 0.0
2015-Feb-19 09:28N 51°06' E 003°45'0 0.0
2015-Feb-19 08:31N 51°06' E 003°45'0 0.0
2015-Feb-19 07:28N 51°06' E 003°45'0 0.0
2015-Feb-19 06:31N 51°06' E 003°45'0 0.0
2015-Feb-19 05:31N 51°06' E 003°45'  
Track history (hours):
 
Tides and Currents Weather Stations Pressure Air Temp Water Temp Dewpoint Dewpoint Depression Visibility Wind Speed Wind Dir Waves Ship Positions

Arklow Spray

Last reported at 2015-Mar-01 05:24 UTC. Time now 2015-Mar-02 07:22 UTC.
Position N 51°20' W 003°20'.

Length 90 m; draft 4.8 m.

Type: Cargo ship. MMSI: 309914000.

Date/timePositionNaut miles runAvg speedWind from/ knotsBaromVisibWave heightAir tempDewpointWater temp
2015-Mar-01 05:24N 51°20' W 003°20'8 9.1
2015-Mar-01 04:33N 51°24' W 003°09'10 9.9
2015-Mar-01 03:33N 51°31' W 002°59'3 0.2
2015-Feb-28 12:27N 51°34' W 002°58'0 0.0
2015-Feb-28 10:33N 51°34' W 002°58'0 0.0
2015-Feb-28 02:03N 51°34' W 002°58'1 1.6
2015-Feb-28 01:31N 51°33' W 002°59'1010.1
2015-Feb-28 00:34N 51°24' W 003°06'10 9.1
2015-Feb-27 23:28N 51°21' W 003°21'174 6.7
2015-Feb-26 21:31N 54°11' W 004°20'  
2015-Feb-20 18:10N 50°37' E 000°34'812.7
2015-Feb-20 17:31N 50°42' E 000°44'3310.3
2015-Feb-20 14:18N 51°03' E 001°25'5 7.0
2015-Feb-20 13:33N 51°06' E 001°31'6 6.4
2015-Feb-20 12:33N 51°10' E 001°39'7 7.5
2015-Feb-20 11:33N 51°15' E 001°47'1110.6
2015-Feb-20 10:33N 51°24' E 001°58'9 9.3
2015-Feb-20 09:33N 51°22' E 002°12'1111.2
2015-Feb-20 08:33N 51°23' E 002°30'1110.9
2015-Feb-20 07:34N 51°22' E 002°47'1211.1
2015-Feb-20 06:30N 51°24' E 003°06'1212.4
2015-Feb-20 05:34N 51°25' E 003°25'1110.9
2015-Feb-20 04:33N 51°24' E 003°42'6 5.8
2015-Feb-20 03:33N 51°20' E 003°49'1 0.8
2015-Feb-20 02:34N 51°19' E 003°50'4 3.9
2015-Feb-20 01:34N 51°15' E 003°49'8 7.5
2015-Feb-20 00:33N 51°08' E 003°46'2 2.1
2015-Feb-19 23:32N 51°06' E 003°45'0 0.0
2015-Feb-19 22:32N 51°06' E 003°45'0 0.0
2015-Feb-19 21:32N 51°06' E 003°45'0 0.0
2015-Feb-19 20:32N 51°06' E 003°45'0 0.0
2015-Feb-19 19:32N 51°06' E 003°45'0 0.0
2015-Feb-19 18:31N 51°06' E 003°45'0 0.0
2015-Feb-19 17:32N 51°06' E 003°45'0 0.0
2015-Feb-19 16:28N 51°06' E 003°45'0 0.0
2015-Feb-19 15:28N 51°06' E 003°45'0 0.0
2015-Feb-19 14:28N 51°06' E 003°45'0 0.0
2015-Feb-19 13:31N 51°06' E 003°45'0 0.0
2015-Feb-19 12:28N 51°06' E 003°45'0 0.0
2015-Feb-19 11:28N 51°06' E 003°45'0 0.0
2015-Feb-19 10:28N 51°06' E 003°45'0 0.0
2015-Feb-19 09:28N 51°06' E 003°45'0 0.0
2015-Feb-19 08:31N 51°06' E 003°45'0 0.0
2015-Feb-19 07:28N 51°06' E 003°45'0 0.0
2015-Feb-19 06:31N 51°06' E 003°45'0 0.0
2015-Feb-19 05:31N 51°06' E 003°45'  

Dump ship's entire track history